.
WxDataArchive / Data Records for 2011-07-28
2011-07-27 July 2011 2011-07-29

Data Records for Thursday, 28 July 2011

Time	Temp	Chill	HIndex	Humid	Dewpt	 Wind 	HiWind	WindDir	Rain 	Barom 
-----	----	-----	------	-----	-----	------	------	-------	-----	----- 
00:00	82.4	82.4	88.2	74	73.3	0	0	---	0.00	29.867 
00:05	82.4	82.4	88.4	75	73.7	0	0	---	0.00	29.867 
00:10	82.4	82.4	88.4	75	73.7	0	1	315	0.00	29.867 
00:15	82.4	82.4	88.4	75	73.7	0	1	315	0.00	29.852 
00:20	82.2	82.2	88.3	76	73.9	0	0	---	0.00	29.852 
00:25	82.2	82.2	88.3	76	73.9	0	0	---	0.00	29.852 
00:30	82.2	82.2	88.3	76	73.9	0	1	315	0.00	29.864 
00:35	82.2	82.2	88.3	76	73.9	0	1	315	0.00	29.864 
00:40	82.2	82.2	88.3	76	73.9	0	1	315	0.00	29.864 
00:45	82.2	82.2	88.3	76	73.9	0	1	315	0.00	29.867 
00:50	82.2	82.2	88.3	76	73.9	0	0	---	0.00	29.867 
00:55	82.2	82.2	88.3	76	73.9	0	2	315	0.00	29.867 
01:00	82.4	82.4	88.4	75	73.7	0	1	315	0.00	29.873 
01:05	82.4	82.4	88.4	75	73.7	0	2	225	0.00	29.873 
01:10	82.6	82.6	88.6	74	73.4	0	1	225	0.00	29.873 
01:15	82.6	82.6	88.6	74	73.4	0	1	225	0.00	29.874 
01:20	82.6	82.6	88.6	74	73.4	0	1	225	0.00	29.874 
01:25	82.6	82.6	88.6	74	73.4	0	0	---	0.00	29.874 
01:30	82.6	82.6	88.6	74	73.4	0	2	225	0.00	29.864 
01:35	82.6	82.6	88.6	74	73.4	0	2	225	0.00	29.864 
01:40	82.4	82.4	88.2	74	73.3	0	3	225	0.00	29.864 
01:45	82.6	82.6	88.6	74	73.4	0	2	248	0.00	29.866 
01:50	82.6	82.6	88.6	74	73.4	0	1	248	0.00	29.866 
01:55	82.6	82.6	88.6	74	73.4	0	2	248	0.00	29.866 
02:00	82.4	82.4	88.2	74	73.3	0	2	248	0.00	29.866 
02:05	82.2	82.2	88.0	75	73.5	0	2	248	0.00	29.866 
02:10	82.0	82.0	87.8	76	73.7	0	2	248	0.00	29.866 
02:15	81.8	81.8	87.4	76	73.5	0	2	248	0.00	29.867 
02:20	81.6	81.6	86.9	76	73.3	0	1	248	0.00	29.867 
02:25	81.6	81.6	86.9	76	73.3	0	2	248	0.00	29.867 
02:30	81.6	81.6	86.9	76	73.3	0	2	225	0.00	29.866 
02:35	81.6	81.6	86.9	76	73.3	0	2	315	0.00	29.866 
02:40	81.6	81.6	86.9	76	73.3	0	3	292	0.00	29.866 
02:45	81.8	81.8	87.1	75	73.1	1	4	292	0.00	29.869 
02:50	81.8	81.8	87.1	75	73.1	0	6	292	0.00	29.869 
02:55	81.8	81.8	87.1	75	73.1	0	2	292	0.00	29.869 
03:00	81.8	81.8	87.1	75	73.1	0	2	292	0.00	29.864 
03:05	81.8	81.8	87.1	75	73.1	0	1	292	0.00	29.864 
03:10	81.8	81.8	87.1	75	73.1	0	3	292	0.00	29.864 
03:15	81.6	81.6	86.7	75	72.9	0	1	292	0.00	29.864 
03:20	81.8	81.8	87.1	75	73.1	0	2	292	0.00	29.864 
03:25	81.8	81.8	87.1	75	73.1	0	2	292	0.00	29.864 
03:30	81.8	81.8	87.1	75	73.1	0	2	225	0.00	29.860 
03:35	81.8	81.8	86.9	74	72.7	0	2	248	0.00	29.860 
03:40	81.8	81.8	86.9	74	72.7	0	3	248	0.00	29.860 
03:45	81.8	81.8	86.9	74	72.7	0	2	248	0.00	29.850 
03:50	81.8	81.8	86.9	74	72.7	1	4	270	0.00	29.850 
03:55	81.8	81.8	86.9	74	72.7	0	2	270	0.00	29.850 
04:00	81.8	81.8	86.9	74	72.7	0	2	270	0.00	29.852 
04:05	81.8	81.8	86.9	74	72.7	0	2	270	0.00	29.852 
04:10	81.6	81.6	86.5	74	72.5	0	2	270	0.00	29.852 
04:15	81.6	81.6	86.5	74	72.5	0	0	---	0.00	29.851 
04:20	81.6	81.6	86.5	74	72.5	0	2	270	0.00	29.851 
04:25	81.4	81.4	86.3	75	72.7	0	1	270	0.00	29.851 
04:30	81.4	81.4	86.3	75	72.7	0	1	270	0.00	29.858 
04:35	81.2	81.2	85.9	75	72.5	0	1	270	0.00	29.858 
04:40	81.2	81.2	85.9	75	72.5	0	2	270	0.00	29.858 
04:45	81.2	81.2	85.9	75	72.5	0	1	270	0.00	29.851 
04:50	81.1	81.1	85.9	76	72.8	0	2	270	0.00	29.851 
04:55	81.1	81.1	85.9	76	72.8	0	2	270	0.00	29.851 
05:00	81.1	81.1	85.9	76	72.8	0	2	270	0.00	29.849 
05:05	81.1	81.1	85.9	76	72.8	0	2	292	0.00	29.849 
05:10	80.9	80.9	85.5	76	72.6	0	2	22	0.00	29.849 
05:15	80.9	80.9	85.7	77	73.0	0	2	22	0.00	29.847 
05:20	80.9	80.9	85.7	77	73.0	0	2	0	0.00	29.847 
05:25	80.7	80.7	85.2	77	72.8	0	1	0	0.00	29.847 
05:30	80.7	80.7	85.2	77	72.8	0	1	0	0.00	29.849 
05:35	80.5	80.5	84.8	77	72.6	0	2	0	0.00	29.849 
05:40	80.5	80.5	84.8	77	72.6	0	1	0	0.00	29.849 
05:45	80.7	80.7	85.2	77	72.8	0	1	0	0.00	29.868 
05:50	80.5	80.5	84.8	77	72.6	0	1	0	0.00	29.868 
05:55	80.5	80.5	85.0	78	73.0	0	1	0	0.00	29.868 
06:00	80.5	80.5	85.0	78	73.0	0	1	0	0.00	29.867 
06:05	80.5	80.5	85.0	78	73.0	0	1	0	0.00	29.867 
06:10	80.5	80.5	85.0	78	73.0	0	1	0	0.00	29.867 
06:15	80.3	80.3	84.6	78	72.8	0	1	0	0.00	29.881 
06:20	80.3	80.3	84.6	78	72.8	0	1	0	0.00	29.881 
06:25	80.3	80.3	84.6	78	72.8	0	0	---	0.00	29.881 
06:30	80.1	80.1	84.3	79	73.0	0	1	0	0.00	29.887 
06:35	80.1	80.1	84.3	79	73.0	0	0	---	0.00	29.887 
06:40	80.1	80.1	84.3	79	73.0	0	0	---	0.00	29.887 
06:45	79.9	79.9	83.9	79	72.8	0	0	---	0.00	29.885 
06:50	79.8	79.8	83.8	80	73.1	0	0	---	0.00	29.885 
06:55	79.8	79.8	83.8	80	73.1	0	0	---	0.00	29.885 
07:00	79.8	79.8	83.8	80	73.1	0	0	---	0.00	29.886 
07:05	79.6	79.6	83.5	81	73.2	0	1	0	0.00	29.886 
07:10	79.6	79.6	83.5	81	73.2	0	1	0	0.00	29.886 
07:15	79.6	79.6	83.5	81	73.2	0	1	0	0.00	29.887 
07:20	79.6	79.6	83.5	81	73.2	0	0	---	0.00	29.887 
07:25	79.4	79.4	83.2	82	73.4	0	0	---	0.00	29.887 
07:30	79.4	79.4	83.2	82	73.4	0	0	---	0.00	29.899 
07:35	79.4	79.4	83.2	82	73.4	0	0	---	0.00	29.899 
07:40	79.4	79.4	83.2	82	73.4	0	0	---	0.00	29.899 
07:45	79.4	79.4	83.2	82	73.4	0	0	---	0.00	29.915 
07:50	79.2	79.2	82.9	83	73.6	0	0	---	0.00	29.915 
07:55	79.2	79.2	82.9	83	73.6	0	0	---	0.00	29.915 
08:00	79.2	79.2	82.9	83	73.6	0	1	0	0.00	29.910 
08:05	79.4	79.4	83.3	83	73.8	0	1	0	0.00	29.910 
08:10	79.4	79.4	83.3	83	73.8	0	1	0	0.00	29.910 
08:15	79.6	79.6	83.7	83	74.0	0	0	---	0.00	29.919 
08:20	79.6	79.6	83.6	82	73.6	0	0	---	0.00	29.919 
08:25	79.6	79.6	83.6	82	73.6	0	1	0	0.00	29.919 
08:30	79.8	79.8	84.1	82	73.8	0	1	0	0.00	29.918 
08:35	79.9	79.9	84.3	82	73.9	0	2	0	0.00	29.918 
08:40	79.9	79.9	84.1	81	73.5	0	1	0	0.00	29.918 
08:45	80.1	80.1	84.6	81	73.7	0	1	0	0.00	29.922 
08:50	80.3	80.3	85.0	81	73.9	0	2	0	0.00	29.922 
08:55	80.5	80.5	85.5	81	74.1	0	2	0	0.00	29.922 
09:00	80.5	80.5	85.3	80	73.7	0	2	0	0.00	29.926 
09:05	80.7	80.7	85.8	80	73.9	0	1	292	0.00	29.926 
09:10	80.7	80.7	85.8	80	73.9	0	1	292	0.00	29.926 
09:15	80.9	80.9	86.2	80	74.1	0	2	292	0.00	29.927 
09:20	81.1	81.1	86.7	80	74.3	0	3	292	0.00	29.927 
09:25	81.2	81.2	86.7	79	74.0	0	2	315	0.00	29.927 
09:30	81.4	81.4	86.9	78	73.9	1	3	90	0.00	29.934 
09:35	81.4	81.4	86.9	78	73.9	1	3	90	0.00	29.934 
09:40	81.6	81.6	87.2	77	73.7	0	3	270	0.00	29.934 
09:45	81.8	81.8	87.8	78	74.2	0	4	270	0.00	29.939 
09:50	81.8	81.8	87.6	77	73.9	0	2	270	0.00	29.939 
09:55	82.0	82.0	88.0	77	74.1	1	3	270	0.00	29.939 
10:00	82.2	82.2	88.3	76	73.9	0	2	270	0.00	29.945 
10:05	82.2	82.2	88.3	76	73.9	1	4	270	0.00	29.945 
10:10	82.4	82.4	88.7	76	74.1	0	1	270	0.00	29.945 
10:15	82.8	82.8	89.6	76	74.4	1	2	270	0.00	29.944 
10:20	83.2	83.2	90.3	75	74.4	1	2	270	0.00	29.944 
10:25	83.4	83.4	90.7	75	74.6	1	3	292	0.00	29.944 
10:30	83.8	83.8	91.0	73	74.2	1	4	292	0.00	29.942 
10:35	84.0	84.0	91.5	73	74.4	1	4	270	0.00	29.942 
10:40	84.3	84.3	92.2	73	74.7	1	4	270	0.00	29.942 
10:45	85.1	85.1	93.7	72	75.0	1	4	270	0.00	29.940 
10:50	85.9	85.9	94.8	70	74.9	1	3	270	0.00	29.940 
10:55	86.3	86.3	94.9	68	74.5	2	4	270	0.00	29.940 
11:00	86.7	86.7	95.9	68	74.8	1	4	270	0.00	29.935 
11:05	87.2	87.2	96.1	66	74.4	2	5	315	0.00	29.935 
11:10	87.4	87.4	95.2	63	73.2	2	4	270	0.00	29.935 
11:15	87.8	87.8	96.1	63	73.6	2	4	270	0.00	29.928 
11:20	87.8	87.8	95.6	62	73.1	3	6	270	0.00	29.928 
11:25	87.6	87.6	95.2	62	72.9	2	5	270	0.00	29.928 
11:30	87.8	87.8	96.1	63	73.6	2	5	270	0.00	29.928 
11:35	88.0	88.0	96.1	62	73.3	3	6	270	0.00	29.928 
11:40	88.4	88.4	97.0	62	73.7	1	3	292	0.00	29.928 
11:45	88.6	88.6	96.5	60	72.9	2	6	292	0.00	29.927 
11:50	88.6	88.6	96.5	60	72.9	3	6	270	0.00	29.927 
11:55	88.8	88.8	97.4	61	73.6	2	6	270	0.00	29.927 
12:00	88.8	88.8	95.9	58	72.1	2	6	270	0.00	29.917 
12:05	88.4	88.4	95.5	59	72.2	3	6	292	0.00	29.917 
12:10	88.8	88.8	96.4	59	72.6	2	4	270	0.00	29.917 
12:15	89.5	89.5	97.4	58	72.7	2	5	270	0.00	29.917 
12:20	89.9	89.9	98.3	58	73.1	2	4	270	0.00	29.917 
12:25	90.3	90.3	98.2	56	72.4	3	5	270	0.00	29.917 
12:30	90.1	90.1	97.7	56	72.2	2	5	270	0.00	29.915 
12:35	90.5	90.5	99.2	57	73.1	1	4	248	0.00	29.915 
12:40	90.3	90.3	97.6	55	71.9	2	3	315	0.00	29.915 
12:45	90.3	90.3	98.2	56	72.4	2	5	270	0.00	29.916 
12:50	90.1	90.1	98.3	57	72.8	2	5	270	0.00	29.916 
12:55	90.7	90.7	98.0	54	71.7	2	4	270	0.00	29.916 
13:00	91.2	91.2	98.5	53	71.6	1	5	270	0.00	29.914 
13:05	91.4	91.4	97.8	51	70.7	3	5	270	0.00	29.914 
13:10	91.4	91.4	97.8	51	70.7	2	5	292	0.00	29.914 
13:15	91.4	91.4	99.5	54	72.4	1	3	248	0.00	29.913 
13:20	91.6	91.6	96.7	48	69.1	3	6	292	0.00	29.913 
13:25	91.6	91.6	97.2	49	69.7	3	6	292	0.00	29.913 
13:30	91.8	91.8	98.7	51	71.0	2	7	270	0.00	29.916 
13:35	91.8	91.8	99.2	52	71.6	2	7	270	0.00	29.916 
13:40	92.1	92.1	99.9	52	71.9	2	5	270	0.00	29.916 
13:45	92.7	92.7	100.0	50	71.3	2	5	270	0.00	29.911 
13:50	93.4	93.4	100.9	49	71.3	2	5	270	0.00	29.911 
13:55	94.0	94.0	102.3	49	71.9	2	4	270	0.00	29.911 
14:00	94.0	94.0	101.0	47	70.6	2	6	270	0.00	29.913 
14:05	93.6	93.6	100.2	47	70.3	3	5	270	0.00	29.913 
14:10	93.2	93.2	99.9	48	70.5	2	6	270	0.00	29.913 
14:15	92.7	92.7	99.4	49	70.7	2	6	270	0.00	29.921 
14:20	92.3	92.3	98.1	48	69.7	2	4	270	0.00	29.921 
14:25	91.8	91.8	97.6	49	69.9	2	6	270	0.00	29.921 
14:30	91.6	91.6	97.7	50	70.3	2	5	270	0.00	29.927 
14:35	91.4	91.4	97.8	51	70.7	2	5	270	0.00	29.927 
14:40	91.2	91.2	98.0	52	71.1	3	6	270	0.00	29.927 
14:45	91.4	91.4	98.4	52	71.3	2	4	270	0.00	29.930 
14:50	91.6	91.6	99.4	53	72.0	2	5	270	0.00	29.930 
14:55	92.3	92.3	99.2	50	70.9	3	6	270	0.00	29.930 
15:00	92.5	92.5	99.0	49	70.5	3	6	292	0.00	29.927 
15:05	92.7	92.7	99.4	49	70.7	2	6	270	0.00	29.927 
15:10	93.4	93.4	100.9	49	71.3	2	6	270	0.00	29.927 
15:15	93.4	93.4	100.9	49	71.3	3	5	270	0.00	29.926 
15:20	92.9	92.9	99.9	49	70.9	2	7	292	0.00	29.926 
15:25	92.5	92.5	99.6	50	71.1	2	4	292	0.00	29.926 
15:30	91.8	91.8	98.1	50	70.5	3	6	270	0.00	29.927 
15:35	92.1	92.1	99.3	51	71.3	2	7	270	0.00	29.927 
15:40	92.7	92.7	99.4	49	70.7	3	6	270	0.00	29.927 
15:45	93.4	93.4	100.9	49	71.3	3	7	270	0.00	29.926 
15:50	93.8	93.8	100.6	47	70.5	2	4	338	0.00	29.926 
15:55	94.0	94.0	101.0	47	70.6	2	5	270	0.00	29.926 
16:00	94.3	94.3	102.3	48	71.5	1	3	270	0.00	29.910 
16:05	94.5	94.5	102.1	47	71.1	1	4	270	0.00	29.910 
16:10	94.3	94.3	101.7	47	70.9	2	6	270	0.00	29.910 
16:15	93.8	93.8	100.0	46	69.8	2	6	270	0.00	29.908 
16:20	93.8	93.8	100.6	47	70.5	1	4	270	0.00	29.908 
16:25	94.0	94.0	100.4	46	70.0	3	5	270	0.00	29.908 
16:30	94.0	94.0	100.4	46	70.0	3	6	270	0.00	29.901 
16:35	94.5	94.5	101.5	46	70.5	2	4	292	0.00	29.901 
16:40	94.5	94.5	101.5	46	70.5	2	4	270	0.00	29.901 
16:45	94.3	94.3	101.0	46	70.3	2	5	270	0.00	29.899 
16:50	94.5	94.5	99.7	43	68.5	1	4	270	0.00	29.899 
16:55	94.7	94.7	99.5	42	68.0	2	6	270	0.00	29.899 
17:00	94.7	94.7	99.0	41	67.3	3	6	270	0.00	29.896 
17:05	94.5	94.5	98.1	40	66.4	3	7	270	0.00	29.896 
17:10	94.5	94.5	99.1	42	67.8	2	5	292	0.00	29.896 
17:15	94.7	94.7	99.5	42	68.0	2	4	292	0.00	29.896 
17:20	94.5	94.5	97.6	39	65.7	4	7	270	0.00	29.896 
17:25	94.7	94.7	97.9	39	65.8	3	6	270	0.00	29.896 
17:30	94.7	94.7	97.9	39	65.8	2	5	270	0.00	29.903 
17:35	94.7	94.7	99.0	41	67.3	2	4	270	0.00	29.903 
17:40	94.5	94.5	98.1	40	66.4	1	3	270	0.00	29.903 
17:45	94.5	94.5	98.6	41	67.1	1	3	248	0.00	29.900 
17:50	94.3	94.3	98.8	42	67.6	1	3	248	0.00	29.900 
17:55	93.8	93.8	98.3	43	67.9	1	3	248	0.00	29.900 
18:00	93.4	93.4	98.6	45	68.8	0	2	248	0.00	29.896 
18:05	93.4	93.4	98.1	44	68.2	1	3	270	0.00	29.896 
18:10	93.6	93.6	99.6	46	69.7	1	3	248	0.00	29.896 
18:15	93.6	93.6	98.0	43	67.7	1	4	292	0.00	29.900 
18:20	93.4	93.4	97.6	43	67.5	1	3	315	0.00	29.900 
18:25	93.2	93.2	96.2	41	65.9	1	4	315	0.00	29.900 
18:30	93.2	93.2	96.7	42	66.6	0	3	315	0.00	29.901 
18:35	93.2	93.2	97.2	43	67.3	1	3	315	0.00	29.901 
18:40	93.2	93.2	97.2	43	67.3	1	3	292	0.00	29.901 
18:45	92.9	92.9	96.7	43	67.1	1	4	270	0.00	29.899 
18:50	92.7	92.7	96.3	43	66.9	2	5	292	0.00	29.899 
18:55	92.7	92.7	96.3	43	66.9	1	6	270	0.00	29.899 
19:00	92.7	92.7	95.8	42	66.2	0	4	270	0.00	29.899 
19:05	92.7	92.7	95.4	41	65.5	1	3	270	0.00	29.899 
19:10	92.7	92.7	94.9	40	64.8	2	4	270	0.00	29.899 
19:15	92.5	92.5	95.0	41	65.3	0	3	292	0.00	29.898 
19:20	92.5	92.5	95.0	41	65.3	1	3	292	0.00	29.898 
19:25	92.3	92.3	95.6	43	66.5	1	2	270	0.00	29.898 
19:30	92.1	92.1	95.7	44	67.0	1	2	270	0.00	29.900 
19:35	91.8	91.8	95.6	45	67.4	0	3	270	0.00	29.900 
19:40	91.6	91.6	95.7	46	67.8	1	3	270	0.00	29.900 
19:45	91.2	91.2	95.9	48	68.7	1	2	270	0.00	29.902 
19:50	91.0	91.0	95.6	48	68.5	1	3	270	0.00	29.902 
19:55	90.7	90.7	95.0	48	68.3	1	2	270	0.00	29.902 
20:00	90.5	90.5	94.6	48	68.1	0	2	270	0.00	29.903 
20:05	90.5	90.5	94.2	47	67.5	1	3	270	0.00	29.903 
20:10	90.3	90.3	93.8	47	67.3	1	5	225	0.00	29.903 
20:15	90.3	90.3	93.8	47	67.3	0	2	225	0.00	29.904 
20:20	90.1	90.1	93.9	48	67.7	0	2	292	0.00	29.904 
20:25	89.9	89.9	94.0	49	68.1	1	3	338	0.00	29.904 
20:30	89.7	89.7	93.6	49	68.0	1	3	338	0.00	29.903 
20:35	89.5	89.5	93.7	50	68.4	1	2	338	0.00	29.903 
20:40	89.3	89.3	93.3	50	68.2	0	2	338	0.00	29.903 
20:45	89.0	89.0	93.2	51	68.5	0	2	338	0.00	29.902 
20:50	88.8	88.8	92.4	50	67.7	1	3	338	0.00	29.902 
20:55	88.8	88.8	92.8	51	68.3	0	2	270	0.00	29.902 
21:00	88.6	88.6	92.5	51	68.1	0	1	270	0.00	29.902 
21:05	88.4	88.4	92.1	51	67.9	0	1	270	0.00	29.902 
21:10	88.2	88.2	91.8	51	67.7	0	2	270	0.00	29.902 
21:15	88.2	88.2	91.8	51	67.7	1	3	270	0.00	29.906 
21:20	88.0	88.0	91.8	52	68.1	0	1	270	0.00	29.906 
21:25	87.8	87.8	91.4	52	67.9	0	1	270	0.00	29.906 
21:30	87.6	87.6	91.1	52	67.8	0	1	270	0.00	29.912 
21:35	87.4	87.4	91.1	53	68.1	0	1	270	0.00	29.912 
21:40	87.2	87.2	91.1	54	68.5	0	1	270	0.00	29.912 
21:45	86.7	86.7	90.3	54	68.0	0	0	---	0.00	29.917 
21:50	86.5	86.5	89.9	54	67.8	0	0	---	0.00	29.917 
21:55	86.3	86.3	89.9	55	68.2	0	0	---	0.00	29.917 
22:00	86.1	86.1	89.9	56	68.5	0	0	---	0.00	29.922 
22:05	85.9	85.9	89.6	56	68.3	0	0	---	0.00	29.922 
22:10	85.7	85.7	89.5	57	68.7	0	0	---	0.00	29.922 
22:15	85.5	85.5	89.2	57	68.5	0	0	---	0.00	29.926 
22:20	85.3	85.3	88.8	57	68.3	0	0	---	0.00	29.926 
22:25	84.9	84.9	88.5	58	68.4	0	0	---	0.00	29.926 
22:30	84.7	84.7	88.4	59	68.8	0	0	---	0.00	29.930 
22:35	84.3	84.3	87.8	59	68.4	0	0	---	0.00	29.930 
22:40	84.1	84.1	87.7	60	68.7	0	0	---	0.00	29.930 
22:45	84.0	84.0	87.5	60	68.6	0	0	---	0.00	29.932 
22:50	83.8	83.8	87.5	61	68.9	0	0	---	0.00	29.932 
22:55	83.4	83.4	87.0	62	69.0	0	0	---	0.00	29.932 
23:00	83.4	83.4	87.3	63	69.5	0	1	270	0.00	29.932 
23:05	83.2	83.2	86.9	63	69.3	0	0	---	0.00	29.932 
23:10	83.0	83.0	86.9	64	69.5	0	0	---	0.00	29.932 
23:15	82.8	82.8	86.7	65	69.8	0	0	---	0.00	29.929 
23:20	82.6	82.6	86.4	65	69.6	0	0	---	0.00	29.929 
23:25	82.4	82.4	86.3	66	69.9	0	0	---	0.00	29.929 
23:30	82.2	82.2	85.9	66	69.7	0	0	---	0.00	29.932 
23:35	82.2	82.2	85.9	66	69.7	0	1	270	0.00	29.932 
23:40	82.4	82.4	86.1	65	69.4	0	2	270	0.00	29.932 
23:45	82.6	82.6	86.4	65	69.6	0	1	270	0.00	29.928 
23:50	82.8	82.8	86.7	65	69.8	0	1	270	0.00	29.928 
23:55	83.2	83.2	87.2	64	69.7	0	3	270	0.00	29.928 

CoCoRaHS
IN-AL-39
A2 Web Hosting
Creative Commons License
GoDaddy
search engine by freefind advanced

loaded 2018-11-20 14:44:50 • last modified 2010-11-18 10:43:29
Privacy PolicyDisclaimer
• wx.awcolley.com is powered by PmWiki v.2002016 •
• all content (unless otherwise noted) © 2018 A W Colley